createdAt,value
2016-07-26T00:02:10.002Z,20.3
2016-07-26T00:05:23.539Z,20.2
2016-07-26T00:08:36.874Z,20.2
2016-07-26T00:11:55.480Z,20.1
2016-07-26T00:14:59.972Z,20.1
2016-07-26T00:18:13.684Z,20.1
2016-07-26T00:21:27.436Z,20
2016-07-26T00:24:41.226Z,20
2016-07-26T00:27:55.204Z,20
2016-07-26T00:31:09.193Z,20
2016-07-26T00:34:23.206Z,19.9
2016-07-26T00:37:36.403Z,19.9
2016-07-26T00:40:55.307Z,19.9
2016-07-26T00:43:59.619Z,19.9
2016-07-26T00:47:12.955Z,19.8
2016-07-26T00:50:26.862Z,19.8
2016-07-26T00:53:40.549Z,19.7
2016-07-26T00:56:54.252Z,19.7
2016-07-26T01:00:08.019Z,19.6
2016-07-26T01:03:21.528Z,19.6
2016-07-26T01:06:35.211Z,19.5
2016-07-26T01:09:54.066Z,19.5
2016-07-26T01:12:58.311Z,19.5
2016-07-26T01:16:11.980Z,19.5
2016-07-26T01:19:25.766Z,19.5
2016-07-26T01:22:39.712Z,19.5
2016-07-26T01:25:58.452Z,19.5
2016-07-26T01:29:02.791Z,19.5
2016-07-26T01:32:16.383Z,19.4
2016-07-26T01:35:30.173Z,19.4
2016-07-26T01:38:49.036Z,19.4
2016-07-26T01:41:58.476Z,19.4
2016-07-26T01:45:02.817Z,19.4
2016-07-26T01:48:16.627Z,19.3
2016-07-26T01:51:30.218Z,19.3
2016-07-26T01:54:49.077Z,19.2
2016-07-26T01:57:58.469Z,19.2
2016-07-26T02:01:02.846Z,19.1
2016-07-26T02:04:16.661Z,19.1
2016-07-26T02:07:30.422Z,19
2016-07-26T02:10:49.337Z,19
2016-07-26T02:13:53.810Z,18.9
2016-07-26T02:17:07.258Z,18.9
2016-07-26T02:20:21.256Z,18.9
2016-07-26T02:23:34.508Z,18.8
2016-07-26T02:26:53.141Z,18.7
2016-07-26T02:29:57.402Z,18.7
2016-07-26T02:33:10.686Z,18.7
2016-07-26T02:36:24.495Z,18.7
2016-07-26T02:39:38.302Z,18.7
2016-07-26T02:42:57.175Z,18.7
2016-07-26T02:46:01.509Z,18.6
2016-07-26T02:49:14.907Z,18.6
2016-07-26T02:52:28.267Z,18.6
2016-07-26T02:55:41.687Z,18.6
2016-07-26T02:58:55.419Z,18.5
2016-07-26T03:02:09.068Z,18.5
2016-07-26T03:05:23.011Z,18.5
2016-07-26T03:08:36.727Z,18.5
2016-07-26T03:11:55.283Z,18.4
2016-07-26T03:14:59.720Z,18.4
2016-07-26T03:18:13.492Z,18.4
2016-07-26T03:21:27.186Z,18.4
2016-07-26T03:24:41.047Z,18.5
2016-07-26T03:27:54.910Z,18.4
2016-07-26T03:31:08.953Z,18.4
2016-07-26T03:34:22.564Z,18.4
2016-07-26T03:37:36.427Z,18.4
2016-07-26T03:40:54.849Z,18.4
2016-07-26T03:43:59.106Z,18.4
2016-07-26T03:47:12.928Z,18.4
2016-07-26T03:50:26.755Z,18.4
2016-07-26T03:53:40.730Z,18.4
2016-07-26T03:56:54.541Z,18.3
2016-07-26T04:00:08.194Z,18.3
2016-07-26T04:03:19.984Z,18.3
2016-07-26T04:06:35.797Z,18.3
2016-07-26T04:09:54.388Z,18.2
2016-07-26T04:12:58.860Z,18.2
2016-07-26T04:16:12.486Z,18.2
2016-07-26T04:22:39.901Z,18.2
2016-07-26T04:25:58.387Z,18.3
2016-07-26T04:29:02.680Z,18.3
2016-07-26T04:32:16.424Z,18.4
2016-07-26T04:35:30.167Z,18.4
2016-07-26T04:38:49.128Z,18.4
2016-07-26T04:41:58.437Z,18.5
2016-07-26T04:45:00.794Z,18.5
2016-07-26T04:48:16.503Z,18.5
2016-07-26T04:51:30.009Z,18.5
2016-07-26T04:54:43.601Z,18.5
2016-07-26T04:57:57.157Z,18.6
2016-07-26T05:01:09.543Z,18.6
2016-07-26T05:07:36.521Z,18.8
2016-07-26T05:10:55.028Z,18.9
2016-07-26T05:13:59.387Z,19
2016-07-26T05:17:13.207Z,19.1
2016-07-26T05:20:26.857Z,19.2
2016-07-26T05:23:40.625Z,19.3
2016-07-26T05:26:54.547Z,19.3
2016-07-26T05:30:08.173Z,19.5
2016-07-26T05:36:36.054Z,19.7
2016-07-26T05:39:54.863Z,19.9
2016-07-26T05:42:59.399Z,20
2016-07-26T05:46:13.291Z,20.1
2016-07-26T05:52:40.873Z,20.3
2016-07-26T05:55:54.775Z,20.4
2016-07-26T05:59:08.171Z,20.4
2016-07-26T06:02:22.020Z,20.4
2016-07-26T06:05:35.848Z,20.4
2016-07-26T06:08:54.242Z,20.5
2016-07-26T06:11:58.870Z,20.8
2016-07-26T06:15:12.904Z,21.1
2016-07-26T06:18:26.833Z,21.4
2016-07-26T06:21:41.052Z,21.6
2016-07-26T06:24:55.443Z,21.8
2016-07-26T06:28:09.424Z,22.1
2016-07-26T06:31:23.679Z,22.5
2016-07-26T06:34:38.123Z,22.9
2016-07-26T06:37:57.305Z,23.2
2016-07-26T06:41:02.340Z,23.5
2016-07-26T06:44:16.575Z,23.6
2016-07-26T06:47:30.823Z,23.5
2016-07-26T06:50:49.849Z,23.3
2016-07-26T06:53:54.590Z,23
2016-07-26T06:57:08.471Z,22.8
2016-07-26T07:00:22.470Z,22.7
2016-07-26T07:03:36.406Z,22.6
2016-07-26T07:06:55.442Z,22.5
2016-07-26T07:10:00.102Z,22.7
2016-07-26T07:13:14.327Z,23
2016-07-26T07:16:28.841Z,23.5
2016-07-26T07:19:42.776Z,23.8
2016-07-26T07:22:57.096Z,23.8
2016-07-26T07:26:11.226Z,23.7
2016-07-26T07:29:25.114Z,23.6
2016-07-26T07:32:39.278Z,23.5
2016-07-26T07:35:58.610Z,23.7
2016-07-26T07:39:03.583Z,24.3
2016-07-26T07:42:17.741Z,24.7
2016-07-26T07:45:31.916Z,25.3
2016-07-26T07:48:51.476Z,25.9
2016-07-26T07:51:56.710Z,26.1
2016-07-26T07:55:11.190Z,26.4
2016-07-26T07:58:25.309Z,26.7
2016-07-26T08:01:39.863Z,26.9
2016-07-26T08:04:54.349Z,26.8
2016-07-26T08:08:08.940Z,26.7
2016-07-26T08:11:23.464Z,26.5
2016-07-26T08:14:37.763Z,26.5
2016-07-26T08:17:57.349Z,26.7
2016-07-26T08:21:02.408Z,26.8
2016-07-26T08:24:16.915Z,26.7
2016-07-26T08:27:30.941Z,26.9
2016-07-26T08:30:50.088Z,27
2016-07-26T08:33:55.246Z,27.1
2016-07-26T08:37:09.585Z,27.2
2016-07-26T08:40:23.677Z,27.3
2016-07-26T08:43:38.173Z,27.4
2016-07-26T08:46:57.207Z,27.3
2016-07-26T08:50:02.267Z,27.4
2016-07-26T08:53:16.368Z,27.5
2016-07-26T08:56:30.597Z,27.4
2016-07-26T08:59:49.870Z,27.3
2016-07-26T09:02:54.861Z,27.2
2016-07-26T09:06:09.223Z,26.9
2016-07-26T09:09:21.336Z,26.3
2016-07-26T09:12:37.364Z,25.8
2016-07-26T09:15:56.274Z,25.6
2016-07-26T09:19:01.066Z,25.3
2016-07-26T09:22:14.708Z,25.1
2016-07-26T09:25:28.654Z,25.1
2016-07-26T09:28:42.925Z,25.1
2016-07-26T09:31:56.947Z,25.2
2016-07-26T09:35:11.163Z,25.1
2016-07-26T09:38:23.014Z,24.8
2016-07-26T09:41:37.000Z,24.6
2016-07-26T09:44:56.103Z,24.4
2016-07-26T09:48:00.849Z,24.2
2016-07-26T09:51:14.953Z,24.1
2016-07-26T09:54:29.044Z,24
2016-07-26T09:57:42.999Z,23.9
2016-07-26T10:00:56.733Z,23.8
2016-07-26T10:04:10.410Z,23.8
2016-07-26T10:07:24.838Z,23.8
2016-07-26T10:10:39.084Z,23.9
2016-07-26T10:13:58.292Z,23.9
2016-07-26T10:17:03.182Z,24
2016-07-26T10:20:17.228Z,24.1
2016-07-26T10:23:31.882Z,24.2
2016-07-26T10:26:51.113Z,24.2
2016-07-26T10:29:56.042Z,24.2
2016-07-26T10:33:10.455Z,24.2
2016-07-26T10:36:24.843Z,24.2
2016-07-26T10:39:37.099Z,24.2
2016-07-26T10:42:57.922Z,24.3
2016-07-26T10:46:02.902Z,24.3
2016-07-26T10:49:17.285Z,24.4
2016-07-26T10:52:31.504Z,24.4
2016-07-26T10:55:51.049Z,24.4
2016-07-26T10:58:55.844Z,24.4
2016-07-26T11:02:09.877Z,24.4
2016-07-26T11:05:24.496Z,24.5
2016-07-26T11:08:38.638Z,24.5
2016-07-26T11:11:57.545Z,24.5
2016-07-26T11:15:02.409Z,24.5
2016-07-26T11:18:16.485Z,24.4
2016-07-26T11:21:30.875Z,24.4
2016-07-26T11:24:50.047Z,24.4
2016-07-26T11:27:54.992Z,24.4
2016-07-26T11:31:09.425Z,24.4
2016-07-26T11:37:36.373Z,24.5
2016-07-26T11:40:55.858Z,24.6
2016-07-26T11:44:00.685Z,24.7
2016-07-26T11:47:15.041Z,24.7
2016-07-26T11:50:29.320Z,24.8
2016-07-26T11:53:43.450Z,24.8
2016-07-26T11:56:57.593Z,24.8
2016-07-26T12:00:09.859Z,24.7
2016-07-26T12:03:25.827Z,24.5
2016-07-26T12:06:40.256Z,24.5
2016-07-26T12:09:54.827Z,24.4
2016-07-26T12:13:09.478Z,24.4
2016-07-26T12:16:23.919Z,24.4
2016-07-26T12:19:38.325Z,24.4
2016-07-26T12:22:57.817Z,24.4
2016-07-26T12:26:02.703Z,24.5
2016-07-26T12:29:17.372Z,24.4
2016-07-26T12:32:29.617Z,24.4
2016-07-26T12:35:51.573Z,24.5
2016-07-26T12:38:56.704Z,24.6
2016-07-26T12:42:10.921Z,24.7
2016-07-26T12:45:25.514Z,24.8
2016-07-26T12:48:40.323Z,24.8
2016-07-26T12:51:54.470Z,24.8
2016-07-26T12:55:09.164Z,24.8
2016-07-26T12:58:23.329Z,24.7
2016-07-26T13:01:37.143Z,24.6
2016-07-26T13:04:56.633Z,24.5
2016-07-26T13:08:01.435Z,24.3
2016-07-26T13:11:15.793Z,24.3
2016-07-26T13:14:30.190Z,24.3
2016-07-26T13:17:49.403Z,24.2
2016-07-26T13:20:54.170Z,24.2
2016-07-26T13:24:06.603Z,24.1
2016-07-26T13:27:22.995Z,24.1
2016-07-26T13:30:37.247Z,24.1
2016-07-26T13:33:56.378Z,24.1
2016-07-26T13:37:01.037Z,24.1
2016-07-26T13:40:15.184Z,24.1
2016-07-26T13:43:29.115Z,24.1
2016-07-26T13:46:43.203Z,24.1
2016-07-26T13:49:57.145Z,24.2
2016-07-26T13:53:11.283Z,24.2
2016-07-26T13:56:25.551Z,24.1
2016-07-26T13:59:39.771Z,24.1
2016-07-26T14:02:59.091Z,24.1
2016-07-26T14:06:03.880Z,24.1
2016-07-26T14:09:18.322Z,24
2016-07-26T14:12:32.926Z,24
2016-07-26T14:15:51.610Z,24
2016-07-26T14:18:56.428Z,24
2016-07-26T14:22:10.666Z,23.9
2016-07-26T14:25:24.814Z,23.9
2016-07-26T14:28:38.931Z,23.8
2016-07-26T14:31:58.163Z,23.8
2016-07-26T14:35:02.839Z,23.8
2016-07-26T14:38:17.005Z,23.8
2016-07-26T14:41:30.746Z,23.8
2016-07-26T14:44:49.829Z,23.9
2016-07-26T14:47:54.687Z,24
2016-07-26T14:51:08.556Z,24
2016-07-26T14:54:22.656Z,23.9
2016-07-26T14:57:36.496Z,23.9
2016-07-26T15:00:55.244Z,23.9
2016-07-26T15:03:59.983Z,23.9
2016-07-26T15:07:12.384Z,23.9
2016-07-26T15:10:28.251Z,23.8
2016-07-26T15:13:42.453Z,23.8
2016-07-26T15:16:56.965Z,23.7
2016-07-26T15:20:11.462Z,23.7
2016-07-26T15:23:25.722Z,23.7
2016-07-26T15:26:38.011Z,23.7
2016-07-26T15:29:58.851Z,23.8
2016-07-26T15:33:03.600Z,23.7
2016-07-26T15:36:15.768Z,23.7
2016-07-26T15:39:31.945Z,23.7
2016-07-26T15:45:55.406Z,23.6
2016-07-26T15:49:09.835Z,23.6
2016-07-26T15:52:23.811Z,23.5
2016-07-26T15:55:38.235Z,23.5
2016-07-26T15:58:57.683Z,23.4
2016-07-26T16:02:02.287Z,23.4
2016-07-26T16:05:16.476Z,23.4
2016-07-26T16:08:30.379Z,23.4
2016-07-26T16:11:49.427Z,23.4
2016-07-26T16:14:54.181Z,23.4
2016-07-26T16:18:08.061Z,23.4
2016-07-26T16:21:22.145Z,23.4
2016-07-26T16:24:36.421Z,23.4
2016-07-26T16:27:55.697Z,23.4
2016-07-26T16:31:00.335Z,23.4
2016-07-26T16:34:14.467Z,23.3
2016-07-26T16:37:28.816Z,23.3
2016-07-26T16:40:43.182Z,23.3
2016-07-26T16:43:57.455Z,23.3
2016-07-26T16:47:11.306Z,23.3
2016-07-26T16:50:25.660Z,23.3
2016-07-26T16:53:39.601Z,23.3
2016-07-26T16:56:58.736Z,23.3
2016-07-26T17:00:03.344Z,23.2
2016-07-26T17:03:17.317Z,23.2
2016-07-26T17:06:31.057Z,23.2
2016-07-26T17:09:50.107Z,23.1
2016-07-26T17:12:54.869Z,23.1
2016-07-26T17:16:09.160Z,23.1
2016-07-26T17:19:23.155Z,23
2016-07-26T17:22:35.497Z,23
2016-07-26T17:25:54.642Z,23
2016-07-26T17:28:59.328Z,22.9
2016-07-26T17:32:13.508Z,22.9
2016-07-26T17:35:27.686Z,22.9
2016-07-26T17:38:41.616Z,22.9
2016-07-26T17:41:55.763Z,22.9
2016-07-26T17:45:09.951Z,22.9
2016-07-26T17:48:24.190Z,22.8
2016-07-26T17:51:38.282Z,22.8
2016-07-26T17:54:57.600Z,22.7
2016-07-26T17:58:02.230Z,22.7
2016-07-26T18:01:16.614Z,22.6
2016-07-26T18:04:30.614Z,22.6
2016-07-26T18:07:50.011Z,22.5
2016-07-26T18:10:54.725Z,22.5
2016-07-26T18:14:08.904Z,22.4
2016-07-26T18:17:23.276Z,22.3
2016-07-26T18:20:37.590Z,22.3
2016-07-26T18:23:56.443Z,22.2
2016-07-26T18:26:58.995Z,22.2
2016-07-26T18:30:15.061Z,22.1
2016-07-26T18:33:28.896Z,22.1
2016-07-26T18:36:43.026Z,22
2016-07-26T18:39:56.958Z,22
2016-07-26T18:43:10.397Z,21.9
2016-07-26T18:46:24.572Z,21.8
2016-07-26T18:49:38.457Z,21.8
2016-07-26T18:52:57.412Z,21.7
2016-07-26T18:56:02.075Z,21.7
2016-07-26T18:59:16.231Z,21.6
2016-07-26T19:02:29.977Z,21.5
2016-07-26T19:05:43.877Z,21.5
2016-07-26T19:08:57.683Z,21.4
2016-07-26T19:12:11.412Z,21.4
2016-07-26T19:15:24.955Z,21.3
2016-07-26T19:18:39.123Z,21.3
2016-07-26T19:21:57.918Z,21.2
2016-07-26T19:25:02.448Z,21.1
2016-07-26T19:28:16.247Z,21
2016-07-26T19:31:30.163Z,21
2016-07-26T19:34:44.034Z,21
2016-07-26T19:37:57.946Z,20.9
2016-07-26T19:41:11.455Z,20.9
2016-07-26T19:44:25.256Z,20.8
2016-07-26T19:47:38.564Z,20.8
2016-07-26T19:50:57.421Z,20.7
2016-07-26T19:54:01.784Z,20.7
2016-07-26T19:57:15.628Z,20.6
2016-07-26T20:00:29.532Z,20.5
2016-07-26T20:03:43.490Z,20.4
2016-07-26T20:06:57.329Z,20.3
2016-07-26T20:10:11.172Z,20.3
2016-07-26T20:13:24.416Z,20.2
2016-07-26T20:16:38.043Z,20.1
2016-07-26T20:19:56.462Z,20
2016-07-26T20:23:00.929Z,19.9
2016-07-26T20:26:14.781Z,19.9
2016-07-26T20:29:28.795Z,19.8
2016-07-26T20:32:42.791Z,19.7
2016-07-26T20:35:56.384Z,19.7
2016-07-26T20:39:10.595Z,19.7
2016-07-26T20:42:24.750Z,19.6
2016-07-26T20:52:01.428Z,19.5
2016-07-26T20:55:15.596Z,19.5
2016-07-26T20:58:29.610Z,19.4
2016-07-26T21:01:43.658Z,19.4
2016-07-26T21:04:57.301Z,19.4
2016-07-26T21:08:10.767Z,19.3
2016-07-26T21:11:24.676Z,19.3
2016-07-26T21:14:38.530Z,19.2
2016-07-26T21:17:57.279Z,19.2
2016-07-26T21:21:01.617Z,19.2
2016-07-26T21:24:15.560Z,19.1
2016-07-26T21:27:29.202Z,19
2016-07-26T21:30:40.654Z,19
2016-07-26T21:33:56.372Z,18.9
2016-07-26T21:37:10.002Z,18.9
2016-07-26T21:40:23.691Z,18.8
2016-07-26T21:43:37.542Z,18.8
2016-07-26T21:46:56.030Z,18.7
2016-07-26T21:50:00.397Z,18.7
2016-07-26T21:53:14.005Z,18.7
2016-07-26T21:56:27.254Z,18.7
2016-07-26T21:59:41.123Z,18.6
2016-07-26T22:02:53.011Z,18.6
2016-07-26T22:06:08.344Z,18.5
2016-07-26T22:09:22.187Z,18.5
2016-07-26T22:12:36.261Z,18.4
2016-07-26T22:15:55.396Z,18.4
2016-07-26T22:18:59.522Z,18.4
2016-07-26T22:22:11.318Z,18.3
2016-07-26T22:25:26.099Z,18.3
2016-07-26T22:28:39.951Z,18.3
2016-07-26T22:31:58.791Z,18.3
2016-07-26T22:35:03.014Z,18.3
2016-07-26T22:38:16.706Z,18.3
2016-07-26T22:41:29.916Z,18.2
2016-07-26T22:44:42.977Z,18.1
2016-07-26T22:47:56.577Z,18.1
2016-07-26T22:51:10.134Z,18
2016-07-26T22:54:23.513Z,18
2016-07-26T22:57:37.415Z,17.9
2016-07-26T23:00:55.888Z,17.8
2016-07-26T23:04:00.025Z,17.7
2016-07-26T23:07:11.715Z,17.7
2016-07-26T23:10:25.261Z,17.6
2016-07-26T23:13:38.747Z,17.6
2016-07-26T23:16:57.393Z,17.6
2016-07-26T23:20:01.569Z,17.5
2016-07-26T23:23:15.122Z,17.5
2016-07-26T23:26:28.465Z,17.5
2016-07-26T23:29:41.533Z,17.4
2016-07-26T23:32:59.682Z,17.4
2016-07-26T23:36:03.896Z,17.4
2016-07-26T23:39:15.833Z,17.4
2016-07-26T23:42:29.092Z,17.3
2016-07-26T23:45:42.391Z,17.3
2016-07-26T23:48:55.836Z,17.2
2016-07-26T23:52:09.145Z,17.2
2016-07-26T23:55:22.615Z,17.1
2016-07-26T23:58:36.028Z,17.1
